sensor_id;sensor_type;location;lat;lon;timestamp;P1;durP1;ratioP1;P2;durP2;ratioP2
22490;SDS011;11412;50.802;4.350;2023-02-28T00:00:16;6.35;;;3.92;;
22490;SDS011;11412;50.802;4.350;2023-02-28T00:02:44;4.22;;;3.80;;
22490;SDS011;11412;50.802;4.350;2023-02-28T00:05:11;8.15;;;4.03;;
22490;SDS011;11412;50.802;4.350;2023-02-28T00:07:38;6.15;;;3.60;;
22490;SDS011;11412;50.802;4.350;2023-02-28T00:10:04;4.90;;;3.72;;
22490;SDS011;11412;50.802;4.350;2023-02-28T00:12:34;5.43;;;3.88;;
22490;SDS011;11412;50.802;4.350;2023-02-28T00:15:01;6.88;;;3.70;;
22490;SDS011;11412;50.802;4.350;2023-02-28T00:17:30;6.15;;;3.75;;
22490;SDS011;11412;50.802;4.350;2023-02-28T00:19:55;6.07;;;4.30;;
22490;SDS011;11412;50.802;4.350;2023-02-28T00:22:21;6.70;;;4.00;;
22490;SDS011;11412;50.802;4.350;2023-02-28T00:24:47;6.30;;;3.85;;
22490;SDS011;11412;50.802;4.350;2023-02-28T00:27:13;5.97;;;3.83;;
22490;SDS011;11412;50.802;4.350;2023-02-28T00:29:39;5.45;;;3.33;;
22490;SDS011;11412;50.802;4.350;2023-02-28T00:32:05;5.50;;;4.15;;
22490;SDS011;11412;50.802;4.350;2023-02-28T00:34:32;5.90;;;3.38;;
22490;SDS011;11412;50.802;4.350;2023-02-28T00:37:03;4.80;;;3.63;;
22490;SDS011;11412;50.802;4.350;2023-02-28T00:39:34;8.23;;;4.03;;
22490;SDS011;11412;50.802;4.350;2023-02-28T00:42:01;4.63;;;3.58;;
22490;SDS011;11412;50.802;4.350;2023-02-28T00:44:28;5.82;;;3.92;;
22490;SDS011;11412;50.802;4.350;2023-02-28T00:46:54;4.28;;;3.50;;
22490;SDS011;11412;50.802;4.350;2023-02-28T00:49:21;6.13;;;3.50;;
22490;SDS011;11412;50.802;4.350;2023-02-28T00:51:47;6.10;;;3.30;;
22490;SDS011;11412;50.802;4.350;2023-02-28T00:54:13;8.80;;;4.10;;
22490;SDS011;11412;50.802;4.350;2023-02-28T00:56:38;5.30;;;3.70;;
22490;SDS011;11412;50.802;4.350;2023-02-28T00:59:04;6.47;;;3.60;;
22490;SDS011;11412;50.802;4.350;2023-02-28T01:01:30;5.90;;;3.75;;
22490;SDS011;11412;50.802;4.350;2023-02-28T01:03:56;8.07;;;4.10;;
22490;SDS011;11412;50.802;4.350;2023-02-28T01:06:21;6.15;;;3.90;;
22490;SDS011;11412;50.802;4.350;2023-02-28T01:08:47;6.53;;;3.90;;
22490;SDS011;11412;50.802;4.350;2023-02-28T01:11:14;6.93;;;4.03;;
22490;SDS011;11412;50.802;4.350;2023-02-28T01:13:41;3.97;;;3.50;;
22490;SDS011;11412;50.802;4.350;2023-02-28T01:16:07;6.72;;;3.40;;
22490;SDS011;11412;50.802;4.350;2023-02-28T01:18:33;7.30;;;4.25;;
22490;SDS011;11412;50.802;4.350;2023-02-28T01:21:06;7.03;;;3.70;;
22490;SDS011;11412;50.802;4.350;2023-02-28T01:23:34;4.70;;;3.72;;
22490;SDS011;11412;50.802;4.350;2023-02-28T01:26:04;4.97;;;3.47;;
22490;SDS011;11412;50.802;4.350;2023-02-28T01:28:36;5.22;;;3.80;;
22490;SDS011;11412;50.802;4.350;2023-02-28T01:31:01;5.57;;;4.03;;
22490;SDS011;11412;50.802;4.350;2023-02-28T01:33:27;4.22;;;3.83;;
22490;SDS011;11412;50.802;4.350;2023-02-28T01:38:25;3.92;;;3.50;;
22490;SDS011;11412;50.802;4.350;2023-02-28T01:40:51;5.43;;;4.10;;
22490;SDS011;11412;50.802;4.350;2023-02-28T01:43:22;6.10;;;3.75;;
22490;SDS011;11412;50.802;4.350;2023-02-28T01:45:49;6.40;;;3.80;;
22490;SDS011;11412;50.802;4.350;2023-02-28T01:48:16;6.60;;;4.10;;
22490;SDS011;11412;50.802;4.350;2023-02-28T01:50:43;4.10;;;3.70;;
22490;SDS011;11412;50.802;4.350;2023-02-28T01:53:13;4.22;;;3.90;;
22490;SDS011;11412;50.802;4.350;2023-02-28T01:55:42;7.85;;;4.50;;
22490;SDS011;11412;50.802;4.350;2023-02-28T01:58:11;7.82;;;4.22;;
22490;SDS011;11412;50.802;4.350;2023-02-28T02:00:38;5.22;;;4.30;;
22490;SDS011;11412;50.802;4.350;2023-02-28T02:03:06;5.68;;;4.32;;
22490;SDS011;11412;50.802;4.350;2023-02-28T02:05:35;5.25;;;4.28;;
22490;SDS011;11412;50.802;4.350;2023-02-28T02:08:04;7.75;;;4.50;;
22490;SDS011;11412;50.802;4.350;2023-02-28T02:13:06;7.10;;;4.43;;
22490;SDS011;11412;50.802;4.350;2023-02-28T02:18:52;4.80;;;4.00;;
22490;SDS011;11412;50.802;4.350;2023-02-28T02:29:28;5.72;;;4.70;;
22490;SDS011;11412;50.802;4.350;2023-02-28T02:38:11;5.53;;;4.70;;
22490;SDS011;11412;50.802;4.350;2023-02-28T02:40:47;6.43;;;4.40;;
22490;SDS011;11412;50.802;4.350;2023-02-28T02:43:29;5.25;;;4.75;;
22490;SDS011;11412;50.802;4.350;2023-02-28T02:46:04;6.72;;;4.72;;
22490;SDS011;11412;50.802;4.350;2023-02-28T02:48:35;8.23;;;4.93;;
22490;SDS011;11412;50.802;4.350;2023-02-28T02:51:04;6.32;;;4.82;;
22490;SDS011;11412;50.802;4.350;2023-02-28T02:53:38;6.38;;;4.80;;
22490;SDS011;11412;50.802;4.350;2023-02-28T02:56:28;6.00;;;5.28;;
22490;SDS011;11412;50.802;4.350;2023-02-28T02:58:58;6.40;;;5.25;;
22490;SDS011;11412;50.802;4.350;2023-02-28T03:01:26;8.95;;;5.20;;
22490;SDS011;11412;50.802;4.350;2023-02-28T03:03:59;7.28;;;5.10;;
22490;SDS011;11412;50.802;4.350;2023-02-28T03:06:28;7.90;;;5.40;;
22490;SDS011;11412;50.802;4.350;2023-02-28T03:08:54;11.30;;;5.60;;
22490;SDS011;11412;50.802;4.350;2023-02-28T03:11:20;8.38;;;5.07;;
22490;SDS011;11412;50.802;4.350;2023-02-28T03:21:31;7.15;;;5.95;;
22490;SDS011;11412;50.802;4.350;2023-02-28T03:24:27;6.60;;;5.47;;
22490;SDS011;11412;50.802;4.350;2023-02-28T03:27:04;10.15;;;5.63;;
22490;SDS011;11412;50.802;4.350;2023-02-28T03:32:51;8.35;;;5.70;;
22490;SDS011;11412;50.802;4.350;2023-02-28T03:35:22;9.73;;;6.22;;
22490;SDS011;11412;50.802;4.350;2023-02-28T03:37:52;6.93;;;5.80;;
22490;SDS011;11412;50.802;4.350;2023-02-28T03:40:21;6.00;;;5.40;;
22490;SDS011;11412;50.802;4.350;2023-02-28T03:42:51;8.82;;;6.05;;
22490;SDS011;11412;50.802;4.350;2023-02-28T03:45:23;7.68;;;5.80;;
22490;SDS011;11412;50.802;4.350;2023-02-28T03:47:53;7.95;;;5.90;;
22490;SDS011;11412;50.802;4.350;2023-02-28T03:50:44;6.80;;;5.75;;
22490;SDS011;11412;50.802;4.350;2023-02-28T03:55:45;6.85;;;6.15;;
22490;SDS011;11412;50.802;4.350;2023-02-28T03:58:20;9.05;;;6.00;;
22490;SDS011;11412;50.802;4.350;2023-02-28T04:00:56;8.90;;;6.28;;
22490;SDS011;11412;50.802;4.350;2023-02-28T04:03:33;10.25;;;6.18;;
22490;SDS011;11412;50.802;4.350;2023-02-28T04:05:59;10.13;;;6.82;;
22490;SDS011;11412;50.802;4.350;2023-02-28T04:08:25;9.70;;;6.70;;
22490;SDS011;11412;50.802;4.350;2023-02-28T04:10:53;8.98;;;6.50;;
22490;SDS011;11412;50.802;4.350;2023-02-28T04:13:24;8.75;;;6.63;;
22490;SDS011;11412;50.802;4.350;2023-02-28T04:15:49;11.80;;;6.75;;
22490;SDS011;11412;50.802;4.350;2023-02-28T04:18:15;6.60;;;5.97;;
22490;SDS011;11412;50.802;4.350;2023-02-28T04:20:41;8.57;;;6.30;;
22490;SDS011;11412;50.802;4.350;2023-02-28T04:23:06;10.82;;;6.80;;
22490;SDS011;11412;50.802;4.350;2023-02-28T04:25:32;10.52;;;6.85;;
22490;SDS011;11412;50.802;4.350;2023-02-28T04:27:57;10.20;;;7.13;;
22490;SDS011;11412;50.802;4.350;2023-02-28T04:30:23;11.98;;;7.50;;
22490;SDS011;11412;50.802;4.350;2023-02-28T04:32:49;8.35;;;7.03;;
22490;SDS011;11412;50.802;4.350;2023-02-28T04:35:14;11.93;;;7.35;;
22490;SDS011;11412;50.802;4.350;2023-02-28T04:37:40;11.65;;;7.38;;
22490;SDS011;11412;50.802;4.350;2023-02-28T04:40:06;10.98;;;7.22;;
22490;SDS011;11412;50.802;4.350;2023-02-28T04:42:32;9.23;;;7.18;;
22490;SDS011;11412;50.802;4.350;2023-02-28T04:45:00;10.18;;;7.72;;
22490;SDS011;11412;50.802;4.350;2023-02-28T04:47:27;9.48;;;7.22;;
22490;SDS011;11412;50.802;4.350;2023-02-28T04:49:52;8.40;;;7.35;;
22490;SDS011;11412;50.802;4.350;2023-02-28T04:52:18;11.35;;;7.45;;
22490;SDS011;11412;50.802;4.350;2023-02-28T04:54:44;9.57;;;7.85;;
22490;SDS011;11412;50.802;4.350;2023-02-28T04:57:10;9.32;;;7.43;;
22490;SDS011;11412;50.802;4.350;2023-02-28T04:59:36;8.68;;;7.03;;
22490;SDS011;11412;50.802;4.350;2023-02-28T05:02:01;11.20;;;8.13;;
22490;SDS011;11412;50.802;4.350;2023-02-28T05:04:32;10.27;;;7.38;;
22490;SDS011;11412;50.802;4.350;2023-02-28T05:06:59;9.10;;;6.97;;
22490;SDS011;11412;50.802;4.350;2023-02-28T05:09:25;12.02;;;7.85;;
22490;SDS011;11412;50.802;4.350;2023-02-28T05:11:52;8.52;;;7.50;;
22490;SDS011;11412;50.802;4.350;2023-02-28T05:14:17;8.30;;;7.20;;
22490;SDS011;11412;50.802;4.350;2023-02-28T05:16:43;10.70;;;7.65;;
22490;SDS011;11412;50.802;4.350;2023-02-28T05:19:09;10.35;;;7.53;;
22490;SDS011;11412;50.802;4.350;2023-02-28T05:21:35;10.13;;;7.50;;
22490;SDS011;11412;50.802;4.350;2023-02-28T05:24:06;9.02;;;7.65;;
22490;SDS011;11412;50.802;4.350;2023-02-28T05:26:35;8.55;;;7.32;;
22490;SDS011;11412;50.802;4.350;2023-02-28T05:29:02;11.15;;;7.63;;
22490;SDS011;11412;50.802;4.350;2023-02-28T05:31:28;9.63;;;7.43;;
22490;SDS011;11412;50.802;4.350;2023-02-28T05:33:53;11.30;;;7.85;;
22490;SDS011;11412;50.802;4.350;2023-02-28T05:36:19;9.00;;;7.28;;
22490;SDS011;11412;50.802;4.350;2023-02-28T05:38:46;9.75;;;7.38;;
22490;SDS011;11412;50.802;4.350;2023-02-28T05:41:12;9.90;;;7.70;;
22490;SDS011;11412;50.802;4.350;2023-02-28T05:43:38;11.35;;;7.90;;
22490;SDS011;11412;50.802;4.350;2023-02-28T05:46:05;9.13;;;7.45;;
22490;SDS011;11412;50.802;4.350;2023-02-28T05:48:32;10.15;;;7.68;;
22490;SDS011;11412;50.802;4.350;2023-02-28T05:50:59;9.57;;;7.45;;
22490;SDS011;11412;50.802;4.350;2023-02-28T05:53:25;10.80;;;7.47;;
22490;SDS011;11412;50.802;4.350;2023-02-28T05:55:51;10.25;;;7.75;;
22490;SDS011;11412;50.802;4.350;2023-02-28T05:58:17;8.20;;;7.07;;
22490;SDS011;11412;50.802;4.350;2023-02-28T06:00:43;8.50;;;7.22;;
22490;SDS011;11412;50.802;4.350;2023-02-28T06:03:09;9.27;;;7.40;;
22490;SDS011;11412;50.802;4.350;2023-02-28T06:05:35;7.60;;;6.72;;
22490;SDS011;11412;50.802;4.350;2023-02-28T06:08:00;10.68;;;7.65;;
22490;SDS011;11412;50.802;4.350;2023-02-28T06:10:26;9.50;;;7.80;;
22490;SDS011;11412;50.802;4.350;2023-02-28T06:12:51;8.07;;;6.97;;
22490;SDS011;11412;50.802;4.350;2023-02-28T06:15:17;8.77;;;6.95;;
22490;SDS011;11412;50.802;4.350;2023-02-28T06:17:43;8.40;;;7.15;;
22490;SDS011;11412;50.802;4.350;2023-02-28T06:20:09;10.25;;;6.80;;
22490;SDS011;11412;50.802;4.350;2023-02-28T06:22:38;9.27;;;7.35;;
22490;SDS011;11412;50.802;4.350;2023-02-28T06:25:05;10.18;;;6.72;;
22490;SDS011;11412;50.802;4.350;2023-02-28T06:27:32;8.25;;;6.35;;
22490;SDS011;11412;50.802;4.350;2023-02-28T06:29:58;8.40;;;7.05;;
22490;SDS011;11412;50.802;4.350;2023-02-28T06:32:24;7.57;;;6.78;;
22490;SDS011;11412;50.802;4.350;2023-02-28T06:34:50;9.05;;;7.20;;
22490;SDS011;11412;50.802;4.350;2023-02-28T06:37:16;8.90;;;7.15;;
22490;SDS011;11412;50.802;4.350;2023-02-28T06:39:42;9.25;;;7.03;;
22490;SDS011;11412;50.802;4.350;2023-02-28T06:42:08;8.07;;;6.75;;
22490;SDS011;11412;50.802;4.350;2023-02-28T06:44:34;10.60;;;7.28;;
22490;SDS011;11412;50.802;4.350;2023-02-28T06:47:03;9.98;;;6.82;;
22490;SDS011;11412;50.802;4.350;2023-02-28T06:49:30;13.35;;;7.68;;
22490;SDS011;11412;50.802;4.350;2023-02-28T06:51:57;11.13;;;6.95;;
22490;SDS011;11412;50.802;4.350;2023-02-28T06:54:23;9.52;;;6.78;;
22490;SDS011;11412;50.802;4.350;2023-02-28T06:56:48;10.18;;;6.65;;
22490;SDS011;11412;50.802;4.350;2023-02-28T06:59:14;9.35;;;6.72;;
22490;SDS011;11412;50.802;4.350;2023-02-28T07:01:40;10.75;;;6.63;;
22490;SDS011;11412;50.802;4.350;2023-02-28T07:04:06;7.60;;;6.40;;
22490;SDS011;11412;50.802;4.350;2023-02-28T07:06:31;7.85;;;6.50;;
22490;SDS011;11412;50.802;4.350;2023-02-28T07:08:57;9.75;;;6.57;;
22490;SDS011;11412;50.802;4.350;2023-02-28T07:11:24;7.07;;;5.80;;
22490;SDS011;11412;50.802;4.350;2023-02-28T07:13:54;11.23;;;6.78;;
22490;SDS011;11412;50.802;4.350;2023-02-28T07:16:20;8.93;;;6.45;;
22490;SDS011;11412;50.802;4.350;2023-02-28T07:18:47;9.77;;;6.68;;
22490;SDS011;11412;50.802;4.350;2023-02-28T07:21:13;9.25;;;6.65;;
22490;SDS011;11412;50.802;4.350;2023-02-28T07:23:39;11.88;;;6.57;;
22490;SDS011;11412;50.802;4.350;2023-02-28T07:26:07;8.20;;;6.05;;
22490;SDS011;11412;50.802;4.350;2023-02-28T07:28:40;12.93;;;7.10;;
22490;SDS011;11412;50.802;4.350;2023-02-28T07:31:10;7.85;;;6.28;;
22490;SDS011;11412;50.802;4.350;2023-02-28T07:33:37;7.20;;;5.53;;
22490;SDS011;11412;50.802;4.350;2023-02-28T07:36:03;10.68;;;6.45;;
22490;SDS011;11412;50.802;4.350;2023-02-28T07:38:33;6.78;;;5.47;;
22490;SDS011;11412;50.802;4.350;2023-02-28T07:41:00;10.77;;;6.55;;
22490;SDS011;11412;50.802;4.350;2023-02-28T07:43:29;10.02;;;5.82;;
22490;SDS011;11412;50.802;4.350;2023-02-28T07:46:05;7.60;;;5.47;;
22490;SDS011;11412;50.802;4.350;2023-02-28T07:48:33;9.88;;;5.25;;
22490;SDS011;11412;50.802;4.350;2023-02-28T07:50:59;9.60;;;5.25;;
22490;SDS011;11412;50.802;4.350;2023-02-28T07:53:25;5.63;;;4.72;;
22490;SDS011;11412;50.802;4.350;2023-02-28T07:55:54;6.07;;;4.53;;
22490;SDS011;11412;50.802;4.350;2023-02-28T07:58:20;6.85;;;4.43;;
22490;SDS011;11412;50.802;4.350;2023-02-28T08:00:46;6.90;;;4.82;;
22490;SDS011;11412;50.802;4.350;2023-02-28T08:03:12;8.27;;;4.03;;
22490;SDS011;11412;50.802;4.350;2023-02-28T08:05:41;6.95;;;4.68;;
22490;SDS011;11412;50.802;4.350;2023-02-28T08:08:07;6.60;;;4.72;;
22490;SDS011;11412;50.802;4.350;2023-02-28T08:10:33;7.78;;;4.25;;
22490;SDS011;11412;50.802;4.350;2023-02-28T08:12:59;7.28;;;4.30;;
22490;SDS011;11412;50.802;4.350;2023-02-28T08:15:25;6.95;;;4.47;;
22490;SDS011;11412;50.802;4.350;2023-02-28T08:17:50;9.40;;;4.43;;
22490;SDS011;11412;50.802;4.350;2023-02-28T08:20:16;4.35;;;3.95;;
22490;SDS011;11412;50.802;4.350;2023-02-28T08:22:42;6.50;;;3.42;;
22490;SDS011;11412;50.802;4.350;2023-02-28T08:25:08;4.57;;;3.80;;
22490;SDS011;11412;50.802;4.350;2023-02-28T08:27:34;5.05;;;3.35;;
22490;SDS011;11412;50.802;4.350;2023-02-28T08:30:00;9.45;;;3.65;;
22490;SDS011;11412;50.802;4.350;2023-02-28T08:32:25;4.38;;;3.40;;
22490;SDS011;11412;50.802;4.350;2023-02-28T08:34:51;5.78;;;3.35;;
22490;SDS011;11412;50.802;4.350;2023-02-28T08:37:17;5.88;;;3.53;;
22490;SDS011;11412;50.802;4.350;2023-02-28T08:39:42;11.70;;;3.92;;
22490;SDS011;11412;50.802;4.350;2023-02-28T08:42:08;4.10;;;3.17;;
22490;SDS011;11412;50.802;4.350;2023-02-28T08:44:34;6.75;;;3.20;;
22490;SDS011;11412;50.802;4.350;2023-02-28T08:46:59;4.28;;;3.60;;
22490;SDS011;11412;50.802;4.350;2023-02-28T08:49:25;4.18;;;3.53;;
22490;SDS011;11412;50.802;4.350;2023-02-28T08:51:51;3.70;;;3.15;;
22490;SDS011;11412;50.802;4.350;2023-02-28T08:54:17;3.50;;;3.20;;
22490;SDS011;11412;50.802;4.350;2023-02-28T08:56:44;6.38;;;3.30;;
22490;SDS011;11412;50.802;4.350;2023-02-28T08:59:12;3.40;;;3.13;;
22490;SDS011;11412;50.802;4.350;2023-02-28T09:01:38;4.22;;;3.13;;
22490;SDS011;11412;50.802;4.350;2023-02-28T09:04:04;5.13;;;3.35;;
22490;SDS011;11412;50.802;4.350;2023-02-28T09:06:32;3.88;;;2.88;;
22490;SDS011;11412;50.802;4.350;2023-02-28T09:08:58;4.60;;;3.40;;
22490;SDS011;11412;50.802;4.350;2023-02-28T09:11:25;3.38;;;2.90;;
22490;SDS011;11412;50.802;4.350;2023-02-28T09:13:51;3.92;;;3.00;;
22490;SDS011;11412;50.802;4.350;2023-02-28T09:16:18;4.55;;;3.15;;
22490;SDS011;11412;50.802;4.350;2023-02-28T09:18:44;4.78;;;2.83;;
22490;SDS011;11412;50.802;4.350;2023-02-28T09:21:11;3.70;;;2.58;;
22490;SDS011;11412;50.802;4.350;2023-02-28T09:23:39;2.92;;;2.60;;
22490;SDS011;11412;50.802;4.350;2023-02-28T09:26:06;4.95;;;2.97;;
22490;SDS011;11412;50.802;4.350;2023-02-28T09:28:32;4.70;;;3.00;;
22490;SDS011;11412;50.802;4.350;2023-02-28T09:30:58;4.65;;;2.88;;
22490;SDS011;11412;50.802;4.350;2023-02-28T09:33:24;2.83;;;2.60;;
22490;SDS011;11412;50.802;4.350;2023-02-28T09:35:50;2.70;;;2.50;;
22490;SDS011;11412;50.802;4.350;2023-02-28T09:38:22;2.60;;;2.40;;
22490;SDS011;11412;50.802;4.350;2023-02-28T09:43:15;2.50;;;2.30;;
22490;SDS011;11412;50.802;4.350;2023-02-28T09:45:45;3.03;;;2.45;;
22490;SDS011;11412;50.802;4.350;2023-02-28T09:48:35;5.35;;;2.50;;
22490;SDS011;11412;50.802;4.350;2023-02-28T09:51:27;4.15;;;2.70;;
22490;SDS011;11412;50.802;4.350;2023-02-28T09:53:55;2.13;;;1.90;;
22490;SDS011;11412;50.802;4.350;2023-02-28T09:56:25;2.17;;;1.98;;
22490;SDS011;11412;50.802;4.350;2023-02-28T10:01:43;4.55;;;2.80;;
22490;SDS011;11412;50.802;4.350;2023-02-28T10:06:58;5.03;;;2.00;;
22490;SDS011;11412;50.802;4.350;2023-02-28T10:09:30;4.60;;;2.60;;
22490;SDS011;11412;50.802;4.350;2023-02-28T10:12:04;2.22;;;2.00;;
22490;SDS011;11412;50.802;4.350;2023-02-28T10:14:32;1.80;;;1.70;;
22490;SDS011;11412;50.802;4.350;2023-02-28T10:17:01;2.80;;;1.73;;
22490;SDS011;11412;50.802;4.350;2023-02-28T10:22:19;2.10;;;1.85;;
22490;SDS011;11412;50.802;4.350;2023-02-28T10:24:50;5.45;;;1.90;;
22490;SDS011;11412;50.802;4.350;2023-02-28T10:27:21;4.75;;;2.05;;
22490;SDS011;11412;50.802;4.350;2023-02-28T10:29:53;1.88;;;1.77;;
22490;SDS011;11412;50.802;4.350;2023-02-28T10:32:21;2.42;;;1.98;;
22490;SDS011;11412;50.802;4.350;2023-02-28T10:37:37;1.60;;;1.50;;
22490;SDS011;11412;50.802;4.350;2023-02-28T10:40:04;1.63;;;1.52;;
22490;SDS011;11412;50.802;4.350;2023-02-28T10:42:57;1.60;;;1.50;;
22490;SDS011;11412;50.802;4.350;2023-02-28T10:45:28;1.92;;;1.40;;
22490;SDS011;11412;50.802;4.350;2023-02-28T10:50:29;1.58;;;1.45;;
22490;SDS011;11412;50.802;4.350;2023-02-28T11:01:16;2.67;;;1.37;;
22490;SDS011;11412;50.802;4.350;2023-02-28T11:03:45;2.53;;;1.92;;
22490;SDS011;11412;50.802;4.350;2023-02-28T11:11:21;3.30;;;1.60;;
22490;SDS011;11412;50.802;4.350;2023-02-28T11:13:53;4.25;;;1.58;;
22490;SDS011;11412;50.802;4.350;2023-02-28T11:16:22;1.77;;;1.48;;
22490;SDS011;11412;50.802;4.350;2023-02-28T11:19:01;1.48;;;1.38;;
22490;SDS011;11412;50.802;4.350;2023-02-28T11:21:30;1.42;;;1.42;;
22490;SDS011;11412;50.802;4.350;2023-02-28T11:24:44;1.33;;;1.30;;
22490;SDS011;11412;50.802;4.350;2023-02-28T11:26:48;1.60;;;1.50;;
22490;SDS011;11412;50.802;4.350;2023-02-28T11:29:24;1.75;;;1.65;;
22490;SDS011;11412;50.802;4.350;2023-02-28T11:34:42;3.10;;;1.80;;
22490;SDS011;11412;50.802;4.350;2023-02-28T11:37:13;2.50;;;1.70;;
22490;SDS011;11412;50.802;4.350;2023-02-28T11:39:41;2.60;;;1.80;;
22490;SDS011;11412;50.802;4.350;2023-02-28T11:50:40;2.05;;;1.90;;
22490;SDS011;11412;50.802;4.350;2023-02-28T11:53:14;2.25;;;1.73;;
22490;SDS011;11412;50.802;4.350;2023-02-28T11:55:52;1.83;;;1.60;;
22490;SDS011;11412;50.802;4.350;2023-02-28T11:58:33;2.85;;;1.73;;
22490;SDS011;11412;50.802;4.350;2023-02-28T12:01:14;3.53;;;2.30;;
22490;SDS011;11412;50.802;4.350;2023-02-28T12:07:14;2.97;;;2.00;;
22490;SDS011;11412;50.802;4.350;2023-02-28T12:15:51;2.00;;;1.90;;
22490;SDS011;11412;50.802;4.350;2023-02-28T12:21:36;1.88;;;1.70;;
22490;SDS011;11412;50.802;4.350;2023-02-28T12:24:23;1.83;;;1.70;;
22490;SDS011;11412;50.802;4.350;2023-02-28T12:26:52;1.60;;;1.50;;
22490;SDS011;11412;50.802;4.350;2023-02-28T12:29:26;2.15;;;2.03;;
22490;SDS011;11412;50.802;4.350;2023-02-28T12:31:56;2.95;;;1.70;;
22490;SDS011;11412;50.802;4.350;2023-02-28T12:34:44;2.90;;;1.80;;
22490;SDS011;11412;50.802;4.350;2023-02-28T12:37:41;1.95;;;1.85;;
22490;SDS011;11412;50.802;4.350;2023-02-28T12:40:13;1.80;;;1.70;;
22490;SDS011;11412;50.802;4.350;2023-02-28T12:42:49;2.85;;;1.90;;
22490;SDS011;11412;50.802;4.350;2023-02-28T12:47:55;2.10;;;1.85;;
22490;SDS011;11412;50.802;4.350;2023-02-28T12:50:26;2.30;;;2.10;;
22490;SDS011;11412;50.802;4.350;2023-02-28T12:52:55;2.17;;;1.80;;
22490;SDS011;11412;50.802;4.350;2023-02-28T12:58:27;2.17;;;1.80;;
22490;SDS011;11412;50.802;4.350;2023-02-28T13:07:04;3.15;;;1.77;;
22490;SDS011;11412;50.802;4.350;2023-02-28T13:09:56;2.05;;;1.90;;
22490;SDS011;11412;50.802;4.350;2023-02-28T13:12:23;7.05;;;1.83;;
22490;SDS011;11412;50.802;4.350;2023-02-28T13:14:49;2.10;;;1.88;;
22490;SDS011;11412;50.802;4.350;2023-02-28T13:17:37;1.63;;;1.52;;
22490;SDS011;11412;50.802;4.350;2023-02-28T13:20:16;2.50;;;1.95;;
22490;SDS011;11412;50.802;4.350;2023-02-28T13:22:47;1.92;;;1.70;;
22490;SDS011;11412;50.802;4.350;2023-02-28T13:27:47;1.60;;;1.50;;
22490;SDS011;11412;50.802;4.350;2023-02-28T13:38:45;1.73;;;1.60;;
22490;SDS011;11412;50.802;4.350;2023-02-28T13:46:28;1.97;;;1.70;;
22490;SDS011;11412;50.802;4.350;2023-02-28T13:48:54;1.88;;;1.77;;
22490;SDS011;11412;50.802;4.350;2023-02-28T14:00:13;6.50;;;1.80;;
22490;SDS011;11412;50.802;4.350;2023-02-28T14:08:56;1.70;;;1.60;;
22490;SDS011;11412;50.802;4.350;2023-02-28T14:11:30;3.13;;;1.90;;
22490;SDS011;11412;50.802;4.350;2023-02-28T14:14:01;2.35;;;1.55;;
22490;SDS011;11412;50.802;4.350;2023-02-28T14:16:34;2.10;;;1.95;;
22490;SDS011;11412;50.802;4.350;2023-02-28T14:21:34;2.15;;;1.95;;
22490;SDS011;11412;50.802;4.350;2023-02-28T14:41:37;2.92;;;1.50;;
22490;SDS011;11412;50.802;4.350;2023-02-28T14:46:43;3.80;;;1.90;;
22490;SDS011;11412;50.802;4.350;2023-02-28T14:49:52;2.08;;;1.73;;
22490;SDS011;11412;50.802;4.350;2023-02-28T14:52:05;4.43;;;2.00;;
22490;SDS011;11412;50.802;4.350;2023-02-28T14:54:34;4.30;;;2.10;;
22490;SDS011;11412;50.802;4.350;2023-02-28T14:57:01;2.75;;;1.95;;
22490;SDS011;11412;50.802;4.350;2023-02-28T14:59:28;2.20;;;2.00;;
22490;SDS011;11412;50.802;4.350;2023-02-28T15:04:54;2.33;;;2.05;;
22490;SDS011;11412;50.802;4.350;2023-02-28T15:07:21;2.72;;;1.90;;
22490;SDS011;11412;50.802;4.350;2023-02-28T15:12:41;2.78;;;2.20;;
22490;SDS011;11412;50.802;4.350;2023-02-28T15:15:17;2.22;;;2.05;;
22490;SDS011;11412;50.802;4.350;2023-02-28T15:17:46;2.83;;;2.20;;
22490;SDS011;11412;50.802;4.350;2023-02-28T15:20:16;3.40;;;2.00;;
22490;SDS011;11412;50.802;4.350;2023-02-28T15:22:43;3.08;;;2.20;;
22490;SDS011;11412;50.802;4.350;2023-02-28T15:25:13;3.15;;;2.13;;
22490;SDS011;11412;50.802;4.350;2023-02-28T15:27:44;2.92;;;2.10;;
22490;SDS011;11412;50.802;4.350;2023-02-28T15:30:24;2.42;;;2.22;;
22490;SDS011;11412;50.802;4.350;2023-02-28T15:35:44;2.13;;;2.03;;
22490;SDS011;11412;50.802;4.350;2023-02-28T15:38:26;3.35;;;2.17;;
22490;SDS011;11412;50.802;4.350;2023-02-28T15:40:53;7.15;;;2.17;;
22490;SDS011;11412;50.802;4.350;2023-02-28T15:43:27;2.00;;;1.90;;
22490;SDS011;11412;50.802;4.350;2023-02-28T15:45:56;2.72;;;1.98;;
22490;SDS011;11412;50.802;4.350;2023-02-28T15:48:25;2.60;;;2.10;;
22490;SDS011;11412;50.802;4.350;2023-02-28T15:50:52;2.10;;;2.00;;
22490;SDS011;11412;50.802;4.350;2023-02-28T15:53:24;2.42;;;2.33;;
22490;SDS011;11412;50.802;4.350;2023-02-28T15:56:00;2.17;;;2.08;;
22490;SDS011;11412;50.802;4.350;2023-02-28T15:58:28;2.15;;;1.95;;
22490;SDS011;11412;50.802;4.350;2023-02-28T16:01:01;2.88;;;2.30;;
22490;SDS011;11412;50.802;4.350;2023-02-28T16:03:48;2.30;;;2.10;;
22490;SDS011;11412;50.802;4.350;2023-02-28T16:08:41;2.60;;;2.40;;
22490;SDS011;11412;50.802;4.350;2023-02-28T16:11:10;3.40;;;2.50;;
22490;SDS011;11412;50.802;4.350;2023-02-28T16:13:36;2.20;;;2.10;;
22490;SDS011;11412;50.802;4.350;2023-02-28T16:16:02;3.05;;;2.40;;
22490;SDS011;11412;50.802;4.350;2023-02-28T16:18:28;2.30;;;2.10;;
22490;SDS011;11412;50.802;4.350;2023-02-28T16:20:54;4.55;;;2.55;;
22490;SDS011;11412;50.802;4.350;2023-02-28T16:23:20;3.38;;;1.92;;
22490;SDS011;11412;50.802;4.350;2023-02-28T16:25:45;3.28;;;2.35;;
22490;SDS011;11412;50.802;4.350;2023-02-28T16:28:21;4.35;;;2.55;;
22490;SDS011;11412;50.802;4.350;2023-02-28T16:30:53;2.85;;;2.42;;
22490;SDS011;11412;50.802;4.350;2023-02-28T16:33:19;4.25;;;2.42;;
22490;SDS011;11412;50.802;4.350;2023-02-28T16:35:44;4.00;;;2.42;;
22490;SDS011;11412;50.802;4.350;2023-02-28T16:38:10;3.50;;;2.40;;
22490;SDS011;11412;50.802;4.350;2023-02-28T16:40:36;4.90;;;2.42;;
22490;SDS011;11412;50.802;4.350;2023-02-28T16:43:04;2.40;;;2.20;;
22490;SDS011;11412;50.802;4.350;2023-02-28T16:45:34;2.50;;;2.30;;
22490;SDS011;11412;50.802;4.350;2023-02-28T16:48:00;6.05;;;2.90;;
22490;SDS011;11412;50.802;4.350;2023-02-28T16:50:29;3.13;;;2.03;;
22490;SDS011;11412;50.802;4.350;2023-02-28T16:52:57;2.40;;;2.30;;
22490;SDS011;11412;50.802;4.350;2023-02-28T16:55:24;2.30;;;2.13;;
22490;SDS011;11412;50.802;4.350;2023-02-28T16:57:57;2.70;;;2.47;;
22490;SDS011;11412;50.802;4.350;2023-02-28T17:00:25;2.90;;;2.60;;
22490;SDS011;11412;50.802;4.350;2023-02-28T17:02:53;2.33;;;2.08;;
22490;SDS011;11412;50.802;4.350;2023-02-28T17:05:19;2.40;;;2.20;;
22490;SDS011;11412;50.802;4.350;2023-02-28T17:07:45;3.50;;;1.85;;
22490;SDS011;11412;50.802;4.350;2023-02-28T17:10:13;5.75;;;2.38;;
22490;SDS011;11412;50.802;4.350;2023-02-28T17:12:39;3.00;;;2.30;;
22490;SDS011;11412;50.802;4.350;2023-02-28T17:15:05;7.20;;;2.55;;
22490;SDS011;11412;50.802;4.350;2023-02-28T17:17:31;3.40;;;2.72;;
22490;SDS011;11412;50.802;4.350;2023-02-28T17:19:58;2.65;;;2.35;;
22490;SDS011;11412;50.802;4.350;2023-02-28T17:22:23;2.25;;;2.13;;
22490;SDS011;11412;50.802;4.350;2023-02-28T17:24:51;5.13;;;2.50;;
22490;SDS011;11412;50.802;4.350;2023-02-28T17:27:20;3.92;;;2.40;;
22490;SDS011;11412;50.802;4.350;2023-02-28T17:29:46;3.70;;;2.20;;
22490;SDS011;11412;50.802;4.350;2023-02-28T17:32:12;2.75;;;2.10;;
22490;SDS011;11412;50.802;4.350;2023-02-28T17:34:38;3.63;;;2.55;;
22490;SDS011;11412;50.802;4.350;2023-02-28T17:37:03;2.35;;;2.15;;
22490;SDS011;11412;50.802;4.350;2023-02-28T17:39:29;3.65;;;2.15;;
22490;SDS011;11412;50.802;4.350;2023-02-28T17:41:56;2.53;;;2.22;;